createdAt,value
2019-05-12T00:04:52.123Z,36.20
2019-05-12T00:06:51.780Z,33.60
2019-05-12T00:07:52.010Z,32.30
2019-05-12T00:17:52.067Z,30.90
2019-05-12T00:18:52.095Z,30.40
2019-05-12T00:19:52.124Z,33.20
2019-05-12T00:20:52.154Z,31.40
2019-05-12T00:21:52.182Z,32.30
2019-05-12T00:22:52.209Z,32.50
2019-05-12T00:23:52.238Z,31.90
2019-05-12T00:24:52.292Z,30.50
2019-05-12T00:25:52.296Z,30.40
2019-05-12T00:28:19.975Z,34.30
2019-05-12T00:29:20.006Z,34.10
2019-05-12T00:30:20.031Z,30.00
2019-05-12T00:31:20.059Z,30.00
2019-05-12T00:32:20.089Z,30.90
2019-05-12T00:33:20.116Z,31.00
2019-05-12T00:35:12.712Z,31.60
2019-05-12T00:36:12.741Z,29.00
2019-05-12T00:37:12.771Z,29.60
2019-05-12T00:38:12.797Z,32.70
2019-05-12T00:39:12.826Z,33.80
2019-05-12T00:40:12.854Z,35.40
2019-05-12T00:41:12.897Z,34.50
2019-05-12T00:42:12.912Z,33.20
2019-05-12T00:43:12.938Z,34.30
2019-05-12T00:44:12.967Z,34.70
2019-05-12T00:45:12.999Z,36.80
2019-05-12T00:46:13.025Z,34.30
2019-05-12T00:47:13.053Z,33.40
2019-05-12T00:48:13.084Z,33.00
2019-05-12T00:49:13.110Z,34.00
2019-05-12T00:50:13.139Z,32.20
2019-05-12T00:51:13.166Z,32.80
2019-05-12T00:52:13.195Z,29.10
2019-05-12T00:53:13.223Z,29.40
2019-05-12T00:54:13.258Z,28.50
2019-05-12T00:55:13.278Z,27.30
2019-05-12T00:56:13.306Z,27.90
2019-05-12T00:57:13.334Z,28.60
2019-05-12T00:58:13.363Z,29.00
2019-05-12T00:59:13.410Z,31.50
2019-05-12T01:00:13.428Z,33.40
2019-05-12T01:01:13.449Z,32.70
2019-05-12T01:02:13.476Z,31.80
2019-05-12T01:03:13.504Z,33.10
2019-05-12T01:04:13.532Z,32.40
2019-05-12T01:05:13.561Z,32.90
2019-05-12T01:06:13.592Z,38.30
2019-05-12T01:07:13.616Z,39.40
2019-05-12T01:08:13.644Z,39.70
2019-05-12T01:09:13.673Z,36.30
2019-05-12T01:10:13.701Z,38.10
2019-05-12T01:11:13.728Z,33.80
2019-05-12T01:12:13.756Z,32.90
2019-05-12T01:13:13.784Z,33.90
2019-05-12T01:14:13.813Z,32.50
2019-05-12T01:15:13.847Z,38.50
2019-05-12T01:16:13.869Z,39.30
2019-05-12T01:17:13.896Z,56.20
2019-05-12T01:18:13.927Z,40.70
2019-05-12T01:19:13.974Z,48.70
2019-05-12T01:20:13.990Z,57.30
2019-05-12T01:21:14.032Z,48.60
2019-05-12T01:22:14.060Z,47.00
2019-05-12T01:23:14.395Z,48.50
2019-05-12T01:25:14.452Z,43.10
2019-05-12T01:35:00.665Z,39.90
2019-05-12T01:59:58.134Z,33.50
2019-05-12T02:00:56.166Z,34.30
2019-05-12T02:01:58.100Z,35.40
2019-05-12T02:02:58.424Z,33.30
2019-05-12T02:03:58.431Z,35.50
2019-05-12T02:04:56.280Z,36.80
2019-05-12T02:05:57.968Z,36.60
2019-05-12T02:06:57.816Z,36.60
2019-05-12T02:07:58.319Z,36.70
2019-05-12T02:08:58.178Z,36.70
2019-05-12T02:09:58.433Z,36.70
2019-05-12T02:10:58.133Z,36.80
2019-05-12T02:11:58.250Z,38.00
2019-05-12T02:12:59.035Z,39.80
2019-05-12T02:13:57.978Z,40.70
2019-05-12T02:14:58.423Z,37.70
2019-05-12T02:15:57.862Z,36.40
2019-05-12T02:16:58.161Z,33.70
2019-05-12T02:17:58.879Z,35.30
2019-05-12T02:18:58.279Z,33.60
2019-05-12T02:19:58.645Z,33.80
2019-05-12T02:20:57.687Z,35.20
2019-05-12T02:21:57.930Z,33.10
2019-05-12T02:22:58.413Z,31.20
2019-05-12T02:23:58.317Z,31.00
2019-05-12T02:24:58.413Z,31.10
2019-05-12T02:25:58.582Z,31.90
2019-05-12T02:26:57.860Z,30.50
2019-05-12T02:27:58.388Z,29.70
2019-05-12T02:28:58.592Z,28.80
2019-05-12T02:29:58.584Z,29.90
2019-05-12T02:30:59.011Z,31.20
2019-05-12T02:31:58.975Z,28.50
2019-05-12T02:32:59.062Z,28.80
2019-05-12T02:33:57.099Z,28.90
2019-05-12T02:34:57.127Z,28.80
2019-05-12T02:35:57.155Z,29.30
2019-05-12T02:36:57.187Z,29.00
2019-05-12T02:37:57.214Z,30.50
2019-05-12T02:38:57.251Z,28.80
2019-05-12T02:39:57.269Z,29.50
2019-05-12T02:40:57.296Z,28.50
2019-05-12T02:41:57.325Z,28.20
2019-05-12T02:42:57.354Z,29.50
2019-05-12T02:43:57.381Z,30.60
2019-05-12T02:44:57.414Z,30.40
2019-05-12T02:45:57.452Z,31.00
2019-05-12T02:46:57.467Z,29.70
2019-05-12T02:47:57.496Z,29.60
2019-05-12T02:48:57.528Z,29.90
2019-05-12T02:49:57.554Z,30.40
2019-05-12T02:50:57.580Z,30.00
2019-05-12T02:51:57.610Z,28.80
2019-05-12T02:52:57.637Z,27.90
2019-05-12T02:53:57.665Z,28.70
2019-05-12T02:55:00.678Z,30.10
2019-05-12T02:55:57.723Z,31.10
2019-05-12T02:56:57.751Z,30.00
2019-05-12T02:57:57.785Z,30.70
2019-05-12T02:58:57.807Z,30.70
2019-05-12T02:59:57.836Z,31.30
2019-05-12T03:00:57.865Z,30.70
2019-05-12T03:01:57.894Z,30.10
2019-05-12T03:02:57.920Z,29.50
2019-05-12T03:03:57.950Z,30.20
2019-05-12T03:04:57.977Z,29.90
2019-05-12T03:05:58.006Z,29.60
2019-05-12T03:07:02.041Z,29.00
2019-05-12T03:07:58.062Z,29.20
2019-05-12T03:08:58.091Z,28.20
2019-05-12T03:09:58.120Z,29.70
2019-05-12T03:10:58.156Z,30.20
2019-05-12T03:11:58.177Z,28.90
2019-05-12T03:12:58.209Z,26.70
2019-05-12T03:13:58.238Z,28.10
2019-05-12T03:14:58.259Z,30.30
2019-05-12T03:15:58.289Z,28.80
2019-05-12T03:16:58.317Z,28.00
2019-05-12T03:17:58.346Z,26.80
2019-05-12T03:18:58.378Z,29.10
2019-05-12T03:19:58.403Z,28.10
2019-05-12T03:20:58.435Z,29.00
2019-05-12T03:21:58.459Z,27.80
2019-05-12T03:22:58.487Z,27.30
2019-05-12T03:23:58.516Z,25.90
2019-05-12T03:25:11.279Z,28.10
2019-05-12T03:25:58.574Z,27.60
2019-05-12T03:26:58.601Z,28.10
2019-05-12T03:27:58.628Z,29.30
2019-05-12T03:28:58.657Z,29.70
2019-05-12T03:29:58.689Z,27.60
2019-05-12T03:30:58.743Z,28.40
2019-05-12T03:31:58.742Z,27.30
2019-05-12T03:32:58.895Z,28.50
2019-05-12T03:34:00.496Z,29.40
2019-05-12T03:34:58.827Z,29.60
2019-05-12T03:36:01.212Z,27.80
2019-05-12T03:36:59.693Z,27.50
2019-05-12T03:37:58.917Z,28.20
2019-05-12T03:38:58.940Z,28.50
2019-05-12T03:39:58.969Z,27.20
2019-05-12T03:40:59.236Z,25.50
2019-05-12T03:41:59.026Z,26.80
2019-05-12T03:42:59.053Z,26.50
2019-05-12T03:43:59.080Z,27.80
2019-05-12T03:44:59.109Z,27.70
2019-05-12T03:45:59.139Z,28.10
2019-05-12T03:46:59.168Z,27.90
2019-05-12T03:47:59.193Z,27.50
2019-05-12T03:48:59.223Z,29.40
2019-05-12T03:49:59.260Z,29.20
2019-05-12T03:50:59.280Z,29.10
2019-05-12T03:51:59.334Z,29.40
2019-05-12T03:52:59.336Z,27.80
2019-05-12T03:53:59.367Z,29.50
2019-05-12T03:54:59.393Z,28.70
2019-05-12T03:55:59.419Z,30.10
2019-05-12T03:56:59.448Z,30.20
2019-05-12T03:57:59.483Z,29.40
2019-05-12T03:58:59.504Z,27.60
2019-05-12T03:59:59.533Z,25.80
2019-05-12T04:00:59.561Z,26.60
2019-05-12T04:01:59.590Z,27.10
2019-05-12T04:02:59.617Z,26.70
2019-05-12T04:03:59.646Z,27.60
2019-05-12T04:04:59.674Z,28.40
2019-05-12T04:05:59.704Z,29.90
2019-05-12T04:06:59.737Z,29.00
2019-05-12T04:07:59.759Z,29.70
2019-05-12T04:09:00.164Z,29.20
2019-05-12T04:10:59.869Z,29.20
2019-05-12T04:11:59.926Z,30.20
2019-05-12T04:12:59.900Z,29.40
2019-05-12T04:13:59.930Z,30.00
2019-05-12T04:14:59.957Z,30.70
2019-05-12T04:16:00.011Z,30.90
2019-05-12T04:17:00.015Z,31.40
2019-05-12T04:18:00.042Z,30.30
2019-05-12T04:19:00.071Z,31.40
2019-05-12T04:20:00.101Z,30.00
2019-05-12T04:21:00.127Z,31.20
2019-05-12T04:22:00.486Z,31.10
2019-05-12T04:23:00.209Z,31.40
2019-05-12T04:24:00.211Z,30.40
2019-05-12T04:25:00.244Z,30.40
2019-05-12T04:26:08.421Z,29.80
2019-05-12T04:27:00.301Z,29.60
2019-05-12T04:28:00.333Z,29.70
2019-05-12T04:29:00.355Z,29.60
2019-05-12T04:30:00.384Z,28.60
2019-05-12T04:31:00.411Z,26.30
2019-05-12T04:32:00.439Z,26.70
2019-05-12T04:33:00.468Z,26.30
2019-05-12T04:34:00.502Z,26.40
2019-05-12T04:35:00.524Z,26.80
2019-05-12T04:36:00.557Z,26.80
2019-05-12T04:37:00.582Z,27.80
2019-05-12T04:38:00.611Z,28.80
2019-05-12T04:39:00.840Z,27.30
2019-05-12T04:40:00.669Z,29.60
2019-05-12T04:41:00.696Z,27.40
2019-05-12T04:42:00.724Z,28.40
2019-05-12T04:43:00.752Z,29.80
2019-05-12T04:44:00.781Z,29.10
2019-05-12T04:45:04.296Z,28.40
2019-05-12T04:46:00.837Z,27.70
2019-05-12T04:47:00.867Z,26.70
2019-05-12T04:48:00.897Z,26.70
2019-05-12T04:49:00.923Z,25.10
2019-05-12T04:50:00.953Z,27.10
2019-05-12T04:51:00.979Z,26.40
2019-05-12T04:52:04.987Z,26.10
2019-05-12T04:53:01.036Z,26.30
2019-05-12T04:54:01.065Z,26.90
2019-05-12T04:55:04.459Z,25.60
2019-05-12T04:56:10.770Z,26.20
2019-05-12T04:57:03.970Z,26.30
2019-05-12T04:58:04.241Z,28.00
2019-05-12T04:59:04.700Z,30.40
2019-05-12T05:00:04.829Z,30.70
2019-05-12T05:01:01.268Z,30.30
2019-05-12T05:02:05.130Z,28.80
2019-05-12T05:03:01.328Z,29.80
2019-05-12T05:04:01.361Z,27.80
2019-05-12T05:05:01.382Z,26.90
2019-05-12T05:06:04.305Z,26.40
2019-05-12T05:07:04.285Z,26.40
2019-05-12T05:09:04.838Z,27.40
2019-05-12T05:10:04.583Z,26.50
2019-05-12T05:11:03.899Z,27.30
2019-05-12T05:12:04.417Z,27.90
2019-05-12T05:13:04.685Z,26.60
2019-05-12T05:14:04.236Z,28.10
2019-05-12T05:15:01.685Z,26.70
2019-05-12T05:16:01.698Z,25.60
2019-05-12T05:17:05.107Z,27.50
2019-05-12T05:18:06.040Z,27.10
2019-05-12T05:19:03.640Z,27.00
2019-05-12T05:20:03.962Z,26.30
2019-05-12T05:21:01.841Z,26.80
2019-05-12T05:22:04.239Z,25.60
2019-05-12T05:23:03.453Z,24.70
2019-05-12T05:24:03.787Z,23.60
2019-05-12T05:25:04.139Z,23.50
2019-05-12T05:26:03.263Z,24.10
2019-05-12T05:27:04.343Z,27.10
2019-05-12T05:28:03.908Z,26.00
2019-05-12T05:29:04.099Z,27.00
2019-05-12T05:30:03.974Z,26.90
2019-05-12T05:31:03.571Z,26.60
2019-05-12T05:32:03.506Z,29.90
2019-05-12T05:33:04.543Z,28.00
2019-05-12T05:34:04.440Z,27.20
2019-05-12T05:35:03.948Z,27.00
2019-05-12T05:36:03.500Z,25.80
2019-05-12T05:37:02.306Z,26.30
2019-05-12T05:38:04.288Z,26.90
2019-05-12T05:39:04.331Z,25.00
2019-05-12T05:40:03.892Z,28.10
2019-05-12T05:41:05.952Z,25.80
2019-05-12T05:42:04.467Z,25.80
2019-05-12T05:43:03.717Z,24.70
2019-05-12T05:44:03.090Z,24.40
2019-05-12T05:45:04.648Z,25.90
2019-05-12T05:46:07.655Z,26.50
2019-05-12T05:47:04.370Z,27.10
2019-05-12T05:48:05.592Z,26.00
2019-05-12T05:49:04.212Z,25.10
2019-05-12T05:50:04.774Z,27.60
2019-05-12T05:51:05.654Z,27.10
2019-05-12T05:52:03.529Z,28.50
2019-05-12T05:53:03.821Z,28.70
2019-05-12T05:54:03.947Z,28.80
2019-05-12T05:55:07.826Z,28.20
2019-05-12T05:56:04.049Z,29.40
2019-05-12T05:57:05.481Z,27.90
2019-05-12T05:58:07.920Z,29.60
2019-05-12T05:59:04.578Z,29.70
2019-05-12T06:00:07.321Z,31.90
2019-05-12T06:01:07.633Z,29.20
2019-05-12T06:02:04.934Z,29.90
2019-05-12T06:03:05.381Z,30.50
2019-05-12T06:04:04.326Z,30.80
2019-05-12T06:05:04.403Z,30.90
2019-05-12T06:06:10.788Z,30.90
2019-05-12T06:07:04.126Z,29.60
2019-05-12T06:08:04.216Z,29.80
2019-05-12T06:09:03.750Z,31.20
2019-05-12T06:10:04.116Z,30.20
2019-05-12T06:11:04.767Z,31.80
2019-05-12T06:12:07.564Z,32.40
2019-05-12T06:13:04.153Z,32.80
2019-05-12T06:14:11.390Z,32.30
2019-05-12T06:15:04.210Z,31.80
2019-05-12T06:16:04.521Z,32.30
2019-05-12T06:17:04.360Z,34.20
2019-05-12T06:18:03.881Z,35.00
2019-05-12T06:19:03.656Z,34.30
2019-05-12T06:20:04.435Z,32.50
2019-05-12T06:22:04.011Z,31.70
2019-05-12T06:23:04.383Z,32.20
2019-05-12T06:24:03.788Z,31.80
2019-05-12T06:26:04.612Z,31.70
2019-05-12T06:27:14.366Z,32.60
2019-05-12T06:28:06.398Z,30.90
2019-05-12T06:29:04.384Z,29.40
2019-05-12T06:30:06.263Z,29.00
2019-05-12T06:31:04.250Z,28.90
2019-05-12T06:32:08.125Z,28.80
2019-05-12T06:33:04.266Z,28.80
2019-05-12T06:34:06.254Z,31.30
2019-05-12T06:35:04.680Z,29.20
2019-05-12T06:38:37.241Z,27.90
2019-05-12T06:39:34.211Z,28.10
2019-05-12T06:40:40.216Z,27.60
2019-05-12T06:41:33.614Z,27.80
2019-05-12T06:42:34.112Z,27.40
2019-05-12T06:43:35.268Z,27.40
2019-05-12T06:44:33.471Z,27.30
2019-05-12T06:45:33.971Z,24.30
2019-05-12T06:46:34.271Z,26.00
2019-05-12T06:48:33.283Z,26.10
2019-05-12T06:49:33.765Z,24.20
2019-05-12T06:50:36.980Z,24.70
2019-05-12T06:52:33.758Z,24.80
2019-05-12T06:53:33.625Z,24.50
2019-05-12T06:54:33.528Z,21.90
2019-05-12T06:55:34.501Z,20.70
2019-05-12T06:56:34.212Z,21.60
2019-05-12T06:57:34.259Z,22.00
2019-05-12T06:58:34.385Z,20.50
2019-05-12T06:59:33.865Z,22.40
2019-05-12T07:00:35.038Z,20.70
2019-05-12T07:01:33.475Z,17.30
2019-05-12T07:02:37.035Z,18.00
2019-05-12T07:03:36.921Z,18.80
2019-05-12T07:04:33.964Z,17.90
2019-05-12T07:05:37.772Z,17.60
2019-05-12T07:08:38.289Z,16.50
2019-05-12T07:09:35.342Z,16.80
2019-05-12T07:10:39.481Z,16.40
2019-05-12T07:11:42.571Z,17.30
2019-05-12T07:18:36.972Z,13.60
2019-05-12T07:21:27.308Z,13.90
2019-05-12T07:22:26.023Z,13.50
2019-05-12T07:23:30.067Z,13.20
2019-05-12T07:24:25.891Z,13.80
2019-05-12T07:25:31.273Z,11.40
2019-05-12T07:27:35.645Z,10.60
2019-05-12T07:28:30.467Z,9.70
2019-05-12T07:29:26.039Z,9.60
2019-05-12T07:30:26.096Z,9.30
2019-05-12T07:31:26.102Z,8.40
2019-05-12T07:32:26.158Z,7.90
2019-05-12T07:35:26.427Z,8.00
2019-05-12T07:36:26.256Z,8.50
2019-05-12T07:37:26.288Z,9.00
2019-05-12T07:38:26.334Z,7.90
2019-05-12T07:39:26.350Z,8.40
2019-05-12T07:40:30.031Z,8.00
2019-05-12T07:41:26.414Z,7.90
2019-05-12T07:42:31.548Z,8.00
2019-05-12T07:43:26.474Z,7.60
2019-05-12T07:44:31.472Z,8.50
2019-05-12T07:45:26.537Z,7.70
2019-05-12T07:46:27.976Z,7.70
2019-05-12T07:47:29.303Z,7.50
2019-05-12T07:48:26.635Z,7.40
2019-05-12T07:49:33.948Z,8.00
2019-05-12T07:50:27.470Z,8.60
2019-05-12T07:51:30.440Z,7.10
2019-05-12T07:52:26.758Z,7.90
2019-05-12T07:53:26.787Z,7.70
2019-05-12T07:54:29.317Z,7.80
2019-05-12T07:55:26.871Z,7.60
2019-05-12T07:56:32.535Z,7.80
2019-05-12T07:57:26.912Z,7.90
2019-05-12T07:58:26.940Z,7.90
2019-05-12T07:59:35.663Z,7.40
2019-05-12T08:00:27.002Z,8.20
2019-05-12T08:01:27.033Z,6.80
2019-05-12T08:02:31.553Z,7.20
2019-05-12T08:03:27.099Z,7.60
2019-05-12T08:06:27.190Z,7.30
2019-05-12T08:07:29.909Z,7.00
2019-05-12T08:08:27.254Z,6.70
2019-05-12T08:09:32.524Z,6.50
2019-05-12T08:10:27.342Z,7.20
2019-05-12T08:11:28.676Z,6.90
2019-05-12T08:12:27.608Z,6.80
2019-05-12T08:13:31.379Z,6.20
2019-05-12T08:14:29.342Z,6.30
2019-05-12T08:15:27.498Z,7.10
2019-05-12T08:16:30.273Z,6.80
2019-05-12T08:17:27.560Z,7.00
2019-05-12T08:18:30.631Z,6.50
2019-05-12T08:20:27.634Z,6.30
2019-05-12T08:21:27.665Z,6.10
2019-05-12T08:22:29.414Z,6.70
2019-05-12T08:23:27.754Z,6.40
2019-05-12T08:24:27.762Z,6.50
2019-05-12T08:25:28.917Z,6.10
2019-05-12T08:26:28.560Z,6.00
2019-05-12T08:27:27.880Z,5.80
2019-05-12T08:28:35.779Z,6.00
2019-05-12T08:30:28.179Z,5.80
2019-05-12T08:32:28.018Z,6.00
2019-05-12T08:33:29.615Z,5.60
2019-05-12T08:34:28.102Z,6.00
2019-05-12T08:35:34.594Z,6.20
2019-05-12T08:37:28.202Z,6.60
2019-05-12T08:38:28.434Z,6.10
2019-05-12T08:39:28.264Z,6.50
2019-05-12T08:40:28.497Z,6.50
2019-05-12T08:41:28.731Z,6.20
2019-05-12T08:42:28.562Z,6.00
2019-05-12T08:43:29.511Z,7.20
2019-05-12T08:44:33.484Z,6.00
2019-05-12T08:45:33.936Z,6.40
2019-05-12T08:46:28.695Z,6.80
2019-05-12T08:47:29.011Z,6.20
2019-05-12T08:48:28.554Z,6.10
2019-05-12T08:49:34.035Z,6.00
2019-05-12T08:50:31.440Z,6.30
2019-05-12T08:51:28.925Z,5.80
2019-05-12T08:52:30.775Z,5.90
2019-05-12T08:53:28.686Z,5.20
2019-05-12T08:54:28.718Z,5.80
2019-05-12T08:55:32.495Z,5.90
2019-05-12T08:56:28.782Z,6.50
2019-05-12T08:57:34.909Z,6.20
2019-05-12T08:58:33.652Z,6.00
2019-05-12T08:59:28.881Z,5.60
2019-05-12T09:00:28.913Z,5.90
2019-05-12T09:01:30.756Z,5.50
2019-05-12T09:02:28.978Z,5.20
2019-05-12T09:03:30.420Z,6.30
2019-05-12T09:04:29.085Z,6.10
2019-05-12T09:05:34.615Z,5.70
2019-05-12T09:06:29.107Z,6.10
2019-05-12T09:07:30.389Z,6.30
2019-05-12T09:08:29.174Z,5.90
2019-05-12T09:09:29.214Z,6.40
2019-05-12T09:10:29.239Z,6.20
2019-05-12T09:11:29.273Z,5.90
2019-05-12T09:12:29.355Z,5.20
2019-05-12T09:13:29.337Z,6.20
2019-05-12T09:14:35.529Z,5.50
2019-05-12T09:15:29.403Z,5.50
2019-05-12T09:16:29.436Z,6.30
2019-05-12T09:17:29.468Z,6.50
2019-05-12T09:18:35.135Z,6.30
2019-05-12T09:19:29.535Z,6.70
2019-05-12T09:20:29.568Z,6.90
2019-05-12T09:21:34.297Z,6.10
2019-05-12T09:22:29.631Z,6.40
2019-05-12T09:23:32.824Z,5.80
2019-05-12T09:24:29.699Z,7.20
2019-05-12T09:25:29.730Z,7.00
2019-05-12T09:26:29.762Z,7.10
2019-05-12T09:27:29.795Z,6.70
2019-05-12T09:28:43.611Z,6.90
2019-05-12T09:29:29.859Z,7.30
2019-05-12T09:30:29.893Z,6.50
2019-05-12T09:31:29.925Z,6.90
2019-05-12T09:32:29.959Z,7.20
2019-05-12T09:33:34.103Z,7.50
2019-05-12T09:34:30.024Z,6.60
2019-05-12T09:35:34.842Z,6.60
2019-05-12T09:36:30.090Z,7.10
2019-05-12T09:37:31.027Z,6.30
2019-05-12T09:38:30.158Z,6.60
2019-05-12T09:39:34.114Z,6.90
2019-05-12T09:40:30.222Z,6.50
2019-05-12T09:41:34.107Z,6.80
2019-05-12T09:42:30.288Z,5.80
2019-05-12T09:43:30.328Z,6.00
2019-05-12T09:44:30.680Z,6.00
2019-05-12T09:45:30.388Z,5.90
2019-05-12T09:46:34.331Z,6.60
2019-05-12T09:47:30.534Z,6.20
2019-05-12T09:48:30.489Z,7.20
2019-05-12T09:49:33.316Z,7.70
2019-05-12T09:51:32.950Z,8.80
2019-05-12T09:52:30.623Z,8.90
2019-05-12T09:53:34.250Z,8.10
2019-05-12T09:54:38.902Z,8.00
2019-05-12T09:55:30.725Z,8.10
2019-05-12T09:56:30.758Z,8.90
2019-05-12T09:57:32.499Z,8.80
2019-05-12T09:58:30.850Z,8.80
2019-05-12T09:59:30.858Z,8.00
2019-05-12T10:00:35.978Z,8.50
2019-05-12T10:01:35.293Z,8.70
2019-05-12T10:03:38.318Z,9.80
2019-05-12T10:04:32.971Z,9.50
2019-05-12T10:05:38.572Z,9.20
2019-05-12T10:06:31.099Z,9.50
2019-05-12T10:07:31.134Z,8.10
2019-05-12T10:08:35.670Z,9.50
2019-05-12T10:09:33.437Z,9.20
2019-05-12T10:10:38.306Z,8.80
2019-05-12T10:11:31.272Z,8.60
2019-05-12T10:12:38.814Z,8.60
2019-05-12T10:13:31.341Z,8.30
2019-05-12T10:14:31.376Z,8.40
2019-05-12T10:15:33.188Z,8.00
2019-05-12T10:16:33.433Z,8.00
2019-05-12T10:17:33.869Z,7.90
2019-05-12T10:19:33.904Z,8.20
2019-05-12T10:20:35.409Z,7.50
2019-05-12T10:21:31.640Z,7.60
2019-05-12T10:22:37.785Z,7.00
2019-05-12T10:23:33.612Z,7.10
2019-05-12T10:24:40.263Z,6.40
2019-05-12T10:25:33.905Z,6.20
2019-05-12T10:26:34.117Z,6.00
2019-05-12T10:27:34.490Z,6.80
2019-05-12T10:28:31.923Z,6.70
2019-05-12T10:29:32.424Z,7.20
2019-05-12T10:30:34.251Z,6.60
2019-05-12T10:31:35.803Z,6.10
2019-05-12T10:32:34.161Z,6.20
2019-05-12T10:33:33.775Z,6.70
2019-05-12T10:34:35.808Z,6.00
2019-05-12T10:35:34.686Z,6.50
2019-05-12T10:36:33.731Z,6.00
2019-05-12T10:38:34.406Z,6.70
2019-05-12T10:39:33.488Z,5.90
2019-05-12T10:40:33.813Z,6.20
2019-05-12T10:41:34.240Z,6.10
2019-05-12T10:42:33.650Z,5.60
2019-05-12T10:43:34.205Z,6.00
2019-05-12T10:44:38.566Z,5.80
2019-05-12T10:45:32.643Z,6.20
2019-05-12T10:46:32.706Z,6.10
2019-05-12T10:47:34.324Z,6.00
2019-05-12T10:48:33.901Z,5.80
2019-05-12T10:50:34.116Z,5.60
2019-05-12T10:51:34.356Z,5.40
2019-05-12T10:52:35.032Z,6.60
2019-05-12T10:53:34.112Z,5.30
2019-05-12T10:54:34.242Z,5.80
2019-05-12T10:55:33.765Z,5.40
2019-05-12T10:56:34.783Z,5.60
2019-05-12T10:57:33.422Z,5.50
2019-05-12T10:58:33.614Z,5.40
2019-05-12T10:59:38.261Z,5.00
2019-05-12T11:00:33.737Z,4.90
2019-05-12T11:01:38.428Z,4.80
2019-05-12T11:02:33.745Z,5.30
2019-05-12T11:03:33.803Z,4.80
2019-05-12T11:04:38.949Z,4.90
2019-05-12T11:05:34.150Z,5.00
2019-05-12T11:06:34.046Z,5.10
2019-05-12T11:07:34.064Z,5.00
2019-05-12T11:08:33.655Z,4.80
2019-05-12T11:09:34.536Z,4.90
2019-05-12T11:10:33.745Z,5.00
2019-05-12T11:11:42.367Z,4.30
2019-05-12T11:12:33.836Z,4.30
2019-05-12T11:13:33.927Z,4.20
2019-05-12T11:14:34.305Z,5.00
2019-05-12T11:15:34.616Z,4.30
2019-05-12T11:17:34.064Z,4.50
2019-05-12T11:18:34.230Z,4.50
2019-05-12T11:19:34.382Z,4.90
2019-05-12T11:20:34.552Z,4.40
2019-05-12T11:21:34.254Z,5.20
2019-05-12T11:23:34.628Z,5.00
2019-05-12T11:28:34.793Z,5.00
2019-05-12T11:29:45.704Z,4.40
2019-05-12T11:30:35.392Z,4.70
2019-05-12T11:31:37.326Z,4.30
2019-05-12T11:32:37.914Z,4.40
2019-05-12T11:33:34.794Z,5.00
2019-05-12T11:34:34.843Z,4.10
2019-05-12T11:35:34.899Z,4.40
2019-05-12T11:36:34.936Z,4.30
2019-05-12T11:37:34.983Z,3.80
2019-05-12T11:38:35.024Z,4.10
2019-05-12T11:39:38.686Z,4.10
2019-05-12T11:40:35.117Z,4.90
2019-05-12T11:41:35.162Z,4.10
2019-05-12T11:42:35.351Z,4.40
2019-05-12T11:43:35.256Z,4.70
2019-05-12T11:44:35.304Z,4.10
2019-05-12T11:45:35.348Z,3.90
2019-05-12T11:46:36.392Z,4.10
2019-05-12T11:47:37.324Z,4.40
2019-05-12T11:48:40.447Z,4.70
2019-05-12T11:49:35.533Z,4.50
2019-05-12T11:50:40.538Z,4.00
2019-05-12T11:51:35.626Z,3.70
2019-05-12T11:52:35.675Z,3.80
2019-05-12T11:53:35.720Z,4.00
2019-05-12T11:54:35.766Z,4.40
2019-05-12T11:55:35.864Z,4.00
2019-05-12T11:56:40.414Z,4.00
2019-05-12T11:57:35.904Z,4.70
2019-05-12T11:58:35.951Z,4.30
2019-05-12T11:59:36.000Z,4.10
2019-05-12T12:00:36.046Z,3.80
2019-05-12T12:01:39.687Z,3.90
2019-05-12T12:02:36.364Z,4.20
2019-05-12T12:03:36.186Z,4.40
2019-05-12T12:04:36.234Z,3.60
2019-05-12T12:05:38.228Z,4.10
2019-05-12T12:08:37.378Z,4.40
2019-05-12T12:09:36.898Z,3.80
2019-05-12T12:10:39.693Z,4.20
2019-05-12T12:12:39.566Z,4.10
2019-05-12T12:14:00.304Z,4.70
2019-05-12T12:14:40.194Z,3.80
2019-05-12T12:16:41.963Z,4.20
2019-05-12T12:18:36.892Z,4.10
2019-05-12T12:19:43.717Z,3.70
2019-05-12T12:21:40.397Z,3.80
2019-05-12T12:24:38.389Z,3.80
2019-05-12T12:25:37.217Z,3.90
2019-05-12T12:26:37.437Z,3.90
2019-05-12T12:27:37.311Z,3.40
2019-05-12T12:28:37.370Z,3.40
2019-05-12T12:29:37.408Z,3.10
2019-05-12T12:30:37.503Z,3.50
2019-05-12T12:31:38.938Z,3.70
2019-05-12T12:32:37.547Z,3.60
2019-05-12T12:33:40.667Z,3.60
2019-05-12T12:34:37.640Z,3.70
2019-05-12T12:35:37.687Z,3.10
2019-05-12T12:36:37.736Z,3.50
2019-05-12T12:37:37.782Z,3.20
2019-05-12T12:38:37.828Z,3.70
2019-05-12T12:39:37.876Z,3.50
2019-05-12T12:40:37.923Z,3.20
2019-05-12T12:41:42.663Z,3.30
2019-05-12T12:42:44.069Z,3.40
2019-05-12T12:43:38.064Z,3.40
2019-05-12T12:44:38.144Z,3.50
2019-05-12T12:45:40.340Z,3.30
2019-05-12T12:46:38.206Z,4.10
2019-05-12T12:47:44.413Z,3.40
2019-05-12T12:48:38.299Z,3.80
2019-05-12T12:49:39.968Z,3.70
2019-05-12T12:50:38.393Z,3.90
2019-05-12T12:51:38.440Z,3.50
2019-05-12T12:52:43.791Z,3.80
2019-05-12T12:54:38.807Z,3.10
2019-05-12T12:56:38.677Z,3.60
2019-05-12T12:57:40.289Z,3.50
2019-05-12T12:58:38.995Z,3.20
2019-05-12T12:59:45.417Z,3.50
2019-05-12T13:00:47.746Z,3.60
2019-05-12T13:02:44.116Z,4.40
2019-05-12T13:07:39.192Z,3.90
2019-05-12T13:08:39.239Z,3.70
2019-05-12T13:09:39.287Z,3.70
2019-05-12T13:10:40.438Z,3.30
2019-05-12T13:11:39.380Z,3.10
2019-05-12T13:14:39.517Z,3.70
2019-05-12T13:15:39.563Z,3.20
2019-05-12T13:16:39.616Z,3.40
2019-05-12T13:17:41.767Z,3.20
2019-05-12T13:18:39.702Z,3.60
2019-05-12T13:19:39.750Z,3.20
2019-05-12T13:20:39.794Z,2.80
2019-05-12T13:21:40.168Z,3.60
2019-05-12T13:22:39.907Z,3.30
2019-05-12T13:23:41.103Z,3.50
2019-05-12T13:24:40.005Z,3.60
2019-05-12T13:25:48.457Z,3.80
2019-05-12T13:26:40.272Z,3.60
2019-05-12T13:27:40.141Z,3.50
2019-05-12T13:28:45.447Z,4.10
2019-05-12T13:29:40.233Z,3.30
2019-05-12T13:31:41.088Z,3.80
2019-05-12T13:32:40.573Z,4.00
2019-05-12T13:33:40.397Z,3.90
2019-05-12T13:34:40.441Z,3.80
2019-05-12T13:35:40.487Z,3.80
2019-05-12T13:36:40.533Z,3.50
2019-05-12T13:37:40.578Z,4.50
2019-05-12T13:38:40.773Z,4.00
2019-05-12T13:39:40.671Z,4.00
2019-05-12T13:40:40.716Z,3.90
2019-05-12T13:41:40.761Z,3.20
2019-05-12T13:42:40.835Z,3.70
2019-05-12T13:43:40.856Z,4.00
2019-05-12T13:44:40.993Z,3.60
2019-05-12T13:45:40.948Z,3.80
2019-05-12T13:46:43.411Z,3.40
2019-05-12T13:47:41.266Z,3.40
2019-05-12T13:48:43.312Z,3.30
2019-05-12T13:49:46.789Z,3.50
2019-05-12T13:50:43.181Z,4.00
2019-05-12T13:51:43.056Z,3.70
2019-05-12T13:52:41.296Z,3.60
2019-05-12T13:53:46.431Z,3.00
2019-05-12T13:54:43.561Z,3.90
2019-05-12T13:55:47.507Z,3.80
2019-05-12T13:56:41.454Z,3.50
2019-05-12T13:57:46.235Z,3.60
2019-05-12T13:58:43.708Z,3.30
2019-05-12T13:59:43.501Z,3.80
2019-05-12T14:00:47.445Z,3.80
2019-05-12T14:01:42.861Z,3.50
2019-05-12T14:02:43.985Z,3.00
2019-05-12T14:03:48.647Z,3.60
2019-05-12T14:04:44.221Z,3.40
2019-05-12T14:05:50.511Z,3.80
2019-05-12T14:06:41.912Z,3.70
2019-05-12T14:07:43.726Z,3.10
2019-05-12T14:08:44.391Z,3.10
2019-05-12T14:09:43.724Z,3.90
2019-05-12T14:10:44.714Z,3.70
2019-05-12T14:11:43.695Z,4.00
2019-05-12T14:12:44.030Z,3.90
2019-05-12T14:13:42.236Z,3.30
2019-05-12T14:14:43.726Z,3.30
2019-05-12T14:15:44.263Z,3.40
2019-05-12T14:16:44.643Z,3.30
2019-05-12T14:17:43.498Z,3.30
2019-05-12T14:18:44.201Z,3.00
2019-05-12T14:19:43.725Z,3.10
2019-05-12T14:20:44.897Z,3.40
2019-05-12T14:21:42.681Z,3.50
2019-05-12T14:22:44.741Z,3.20
2019-05-12T14:23:43.657Z,3.60
2019-05-12T14:24:46.561Z,4.20
2019-05-12T14:25:43.731Z,3.60
2019-05-12T14:26:45.573Z,3.20
2019-05-12T14:27:44.302Z,3.10
2019-05-12T14:28:45.700Z,3.20
2019-05-12T14:29:44.085Z,3.10
2019-05-12T14:30:49.774Z,3.40
2019-05-12T14:31:50.006Z,3.10
2019-05-12T14:32:43.974Z,3.00
2019-05-12T14:33:44.225Z,2.80
2019-05-12T14:34:43.475Z,3.20
2019-05-12T14:35:45.778Z,3.20
2019-05-12T14:36:43.414Z,3.60
2019-05-12T14:37:45.988Z,2.80
2019-05-12T14:38:43.369Z,2.90
2019-05-12T14:39:46.108Z,3.10
2019-05-12T14:40:43.462Z,3.20
2019-05-12T14:41:52.591Z,3.40
2019-05-12T14:42:44.246Z,4.70
2019-05-12T14:43:47.622Z,4.00
2019-05-12T14:44:49.369Z,3.30
2019-05-12T14:45:44.084Z,3.60
2019-05-12T14:46:48.700Z,3.30
2019-05-12T14:47:43.877Z,2.60
2019-05-12T14:48:46.369Z,2.70
2019-05-12T14:49:43.868Z,2.40
2019-05-12T14:50:44.264Z,2.90
2019-05-12T14:51:44.489Z,2.60
2019-05-12T14:55:44.137Z,3.00